首页
METAR-TAF:

METAR-TAF

机场 :

韦策机场

Weeze, 德国

纬度: 51-36-09N, 经度: 006-08-32E, 海拔: 32米

当前天气观测

该预报发布于3小时和14分钟前的22:50 UTC
风速5节,风向南转南东
温度 5°C
湿度 81%
气压 1011 hPa
能见度10公里或以上
多云层高于3400英尺

METAR: EDLV 162250Z 16005KT 9999 BKN034 05/02 Q1011

时间: 03:04 (02:04 UTC)

预报

该预报发布于9小时和4分钟前的17:00 UTC
预报有效从16日的 18点(UTC)到 17日的 18点(UTC)
风速3节,风向多变
能见度10公里或以上
1500米以下无云,无积雨云
短暂存在
从 17日的 00点(UTC)到 17日的 10点(UTC)
能見度: 4000
轻雾
几率 30% :
短暂存在
从 17日的 05点(UTC)到 17日的 10点(UTC)
能見度: 2000
多云层高于400英尺
碎片雾
成为
从 17日的 08点(UTC)到 17日的 11点(UTC)
风速5节,风向

TAF: EDLV 161700Z 1618/1718 VRB03KT CAVOK TEMPO 1700/1710 4000 BR PROB30 TEMPO 1705/1710 2000 BCFG BKN004 BECMG 1708/1711 01005KT

超过4000个机场的气象观测和天气预报(METAR&TAF报告)。

可查询的气象台以黄色和红色小点在地图上表示。

将鼠标移到小点上方,可查看气象台名称。

然后点击查看天气观测和预报。

如需切换地图:点击带黑十字的绿色按钮放大地图;点击带横线的绿色按钮缩小地图;或者点击绿色箭头查看邻近地区的地图。


METAR-TAF: